createdAt,value
2023-02-04T00:00:01.000Z,5.39
2023-02-04T00:05:01.000Z,5.39
2023-02-04T00:10:02.000Z,5.41
2023-02-04T00:15:01.000Z,5.37
2023-02-04T00:20:01.000Z,5.33
2023-02-04T00:25:01.000Z,5.31
2023-02-04T00:30:01.000Z,5.26
2023-02-04T00:35:01.000Z,5.24
2023-02-04T00:55:04.000Z,5.26
2023-02-04T01:00:03.000Z,5.24
2023-02-04T01:05:01.000Z,5.22
2023-02-04T01:10:01.000Z,5.15
2023-02-04T01:15:01.000Z,5.13
2023-02-04T01:20:01.000Z,5.08
2023-02-04T01:25:01.000Z,5.08
2023-02-04T01:30:01.000Z,5.06
2023-02-04T01:35:03.000Z,4.97
2023-02-04T01:40:01.000Z,4.97
2023-02-04T01:45:04.000Z,5.00
2023-02-04T01:50:01.000Z,5.03
2023-02-04T01:55:01.000Z,5.05
2023-02-04T02:00:04.000Z,5.06
2023-02-04T02:05:02.000Z,5.13
2023-02-04T02:10:02.000Z,5.15
2023-02-04T02:15:17.000Z,5.16
2023-02-04T02:20:01.000Z,5.18
2023-02-04T02:25:02.000Z,5.19
2023-02-04T02:30:02.000Z,5.21
2023-02-04T02:35:02.000Z,5.23
2023-02-04T02:40:01.000Z,5.26
2023-02-04T02:45:02.000Z,5.31
2023-02-04T02:50:07.000Z,5.30
2023-02-04T02:55:01.000Z,5.30
2023-02-04T03:00:02.000Z,5.31
2023-02-04T03:05:03.000Z,5.27
2023-02-04T03:10:02.000Z,5.32
2023-02-04T03:15:02.000Z,5.37
2023-02-04T03:20:01.000Z,5.41
2023-02-04T03:25:01.000Z,5.43
2023-02-04T03:30:01.000Z,5.39
2023-02-04T03:35:01.000Z,5.36
2023-02-04T03:40:01.000Z,5.35
2023-02-04T03:45:03.000Z,5.35
2023-02-04T03:50:01.000Z,5.34
2023-02-04T03:55:02.000Z,5.33
2023-02-04T04:00:06.000Z,5.28
2023-02-04T04:05:01.000Z,5.33
2023-02-04T04:10:01.000Z,5.32
2023-02-04T04:15:01.000Z,5.28
2023-02-04T04:20:01.000Z,5.24
2023-02-04T04:25:02.000Z,5.21
2023-02-04T04:30:01.000Z,5.19
2023-02-04T04:35:01.000Z,5.20
2023-02-04T04:40:01.000Z,5.19
2023-02-04T04:45:02.000Z,5.20
2023-02-04T04:50:01.000Z,5.15
2023-02-04T04:55:01.000Z,5.10
2023-02-04T05:00:02.000Z,5.10
2023-02-04T05:05:01.000Z,5.07
2023-02-04T05:10:01.000Z,5.03
2023-02-04T05:15:01.000Z,4.97
2023-02-04T05:20:01.000Z,4.97
2023-02-04T05:25:01.000Z,4.97
2023-02-04T05:30:01.000Z,4.97
2023-02-04T05:35:02.000Z,4.97
2023-02-04T05:40:01.000Z,4.97
2023-02-04T05:45:01.000Z,4.97
2023-02-04T05:50:01.000Z,4.95
2023-02-04T05:55:01.000Z,4.94
2023-02-04T06:00:01.000Z,4.91
2023-02-04T06:05:01.000Z,4.91
2023-02-04T06:10:01.000Z,4.91
2023-02-04T06:15:01.000Z,4.94
2023-02-04T06:20:01.000Z,4.95
2023-02-04T06:25:02.000Z,4.97
2023-02-04T06:30:01.000Z,4.97
2023-02-04T06:35:02.000Z,4.94
2023-02-04T06:40:01.000Z,4.92
2023-02-04T06:45:02.000Z,4.92
2023-02-04T06:50:02.000Z,4.94
2023-02-04T06:55:03.000Z,4.94
2023-02-04T07:00:02.000Z,4.94
2023-02-04T07:05:01.000Z,4.95
2023-02-04T07:10:01.000Z,4.94
2023-02-04T07:15:01.000Z,4.97
2023-02-04T07:20:01.000Z,5.00
2023-02-04T07:25:01.000Z,5.09
2023-02-04T07:30:01.000Z,5.10
2023-02-04T07:35:01.000Z,5.11
2023-02-04T07:40:01.000Z,5.10
2023-02-04T07:45:01.000Z,5.10
2023-02-04T07:50:01.000Z,5.12
2023-02-04T07:55:01.000Z,5.17
2023-02-04T08:00:01.000Z,5.19
2023-02-04T08:05:02.000Z,5.25
2023-02-04T08:10:01.000Z,5.30
2023-02-04T08:15:01.000Z,5.34
2023-02-04T08:20:01.000Z,5.43
2023-02-04T08:25:01.000Z,5.48
2023-02-04T08:30:01.000Z,5.53
2023-02-04T08:35:01.000Z,5.56
2023-02-04T08:40:01.000Z,5.64
2023-02-04T08:45:01.000Z,5.72
2023-02-04T08:50:01.000Z,5.78
2023-02-04T08:55:01.000Z,5.80
2023-02-04T09:00:02.000Z,5.83
2023-02-04T09:05:01.000Z,5.91
2023-02-04T09:10:02.000Z,6.01
2023-02-04T09:15:01.000Z,6.11
2023-02-04T09:20:01.000Z,6.20
2023-02-04T09:25:01.000Z,6.25
2023-02-04T09:30:01.000Z,6.36
2023-02-04T09:35:02.000Z,6.41
2023-02-04T09:40:01.000Z,6.50
2023-02-04T09:45:01.000Z,6.54
2023-02-04T09:50:01.000Z,6.59
2023-02-04T09:55:01.000Z,6.61
2023-02-04T10:00:02.000Z,6.69
2023-02-04T10:05:02.000Z,6.78
2023-02-04T10:10:01.000Z,6.84
2023-02-04T10:15:02.000Z,6.89
2023-02-04T10:20:01.000Z,6.98
2023-02-04T10:25:02.000Z,7.08
2023-02-04T10:30:02.000Z,7.19
2023-02-04T10:35:01.000Z,7.26
2023-02-04T10:40:01.000Z,7.34
2023-02-04T10:45:01.000Z,7.44
2023-02-04T10:50:01.000Z,7.59
2023-02-04T10:55:02.000Z,7.75
2023-02-04T11:00:02.000Z,7.85
2023-02-04T11:05:02.000Z,7.91
2023-02-04T11:10:02.000Z,8.01
2023-02-04T11:15:02.000Z,7.99
2023-02-04T11:20:02.000Z,8.08
2023-02-04T11:25:02.000Z,8.17
2023-02-04T11:30:03.000Z,8.19
2023-02-04T11:35:02.000Z,8.19
2023-02-04T11:40:02.000Z,8.20
2023-02-04T11:45:02.000Z,8.15
2023-02-04T11:50:02.000Z,8.16
2023-02-04T11:55:02.000Z,8.15
2023-02-04T12:00:02.000Z,8.14
2023-02-04T12:05:02.000Z,8.09
2023-02-04T12:10:02.000Z,8.08
2023-02-04T12:15:02.000Z,8.04
2023-02-04T12:20:02.000Z,8.00
2023-02-04T12:25:02.000Z,7.98
2023-02-04T12:30:02.000Z,7.97
2023-02-04T12:35:02.000Z,7.97
2023-02-04T12:40:02.000Z,7.98
2023-02-04T12:45:02.000Z,7.99
2023-02-04T12:50:02.000Z,7.94
2023-02-04T12:55:02.000Z,7.94
2023-02-04T13:00:02.000Z,7.90
2023-02-04T13:05:02.000Z,7.88
2023-02-04T13:10:02.000Z,7.93
2023-02-04T13:15:02.000Z,7.98
2023-02-04T13:20:02.000Z,8.02
2023-02-04T13:25:02.000Z,8.13
2023-02-04T13:30:02.000Z,8.15
2023-02-04T13:35:02.000Z,8.22
2023-02-04T13:40:02.000Z,8.19
2023-02-04T13:45:02.000Z,8.18
2023-02-04T13:50:02.000Z,8.18
2023-02-04T13:55:02.000Z,8.19
2023-02-04T14:00:03.000Z,8.22
2023-02-04T14:05:03.000Z,8.27
2023-02-04T14:10:02.000Z,8.32
2023-02-04T14:15:02.000Z,8.23
2023-02-04T14:20:02.000Z,8.15
2023-02-04T14:25:02.000Z,8.20
2023-02-04T14:30:02.000Z,8.41
2023-02-04T14:35:02.000Z,8.28
2023-02-04T14:40:02.000Z,8.19
2023-02-04T14:45:02.000Z,8.06
2023-02-04T14:50:02.000Z,8.06
2023-02-04T14:55:02.000Z,8.07
2023-02-04T15:00:02.000Z,8.12
2023-02-04T15:05:02.000Z,8.05
2023-02-04T15:10:02.000Z,8.01
2023-02-04T15:15:02.000Z,8.03
2023-02-04T15:20:02.000Z,8.01
2023-02-04T15:25:02.000Z,7.97
2023-02-04T15:30:02.000Z,8.13
2023-02-04T15:35:02.000Z,7.90
2023-02-04T15:40:02.000Z,7.86
2023-02-04T15:45:02.000Z,7.81
2023-02-04T15:50:02.000Z,7.81
2023-02-04T15:55:02.000Z,7.74
2023-02-04T16:00:02.000Z,7.68
2023-02-04T16:05:02.000Z,7.59
2023-02-04T16:10:02.000Z,7.55
2023-02-04T16:15:02.000Z,7.68
2023-02-04T16:20:02.000Z,7.73
2023-02-04T16:25:02.000Z,7.56
2023-02-04T16:30:03.000Z,7.31
2023-02-04T16:35:02.000Z,7.09
2023-02-04T16:40:02.000Z,6.94
2023-02-04T16:45:02.000Z,6.52
2023-02-04T16:50:02.000Z,6.64
2023-02-04T16:55:02.000Z,6.37
2023-02-04T17:00:02.000Z,6.41
2023-02-04T17:05:02.000Z,6.41
2023-02-04T17:10:02.000Z,6.39
2023-02-04T17:15:02.000Z,6.39
2023-02-04T17:20:02.000Z,6.29
2023-02-04T17:25:02.000Z,6.41
2023-02-04T17:30:02.000Z,6.31
2023-02-04T17:35:02.000Z,6.25
2023-02-04T17:40:02.000Z,6.24
2023-02-04T17:45:02.000Z,6.19
2023-02-04T17:50:04.000Z,6.30
2023-02-04T17:55:02.000Z,6.16
2023-02-04T18:00:02.000Z,6.11
2023-02-04T18:05:03.000Z,6.12
2023-02-04T18:10:02.000Z,6.02
2023-02-04T18:15:06.000Z,6.14
2023-02-04T18:20:04.000Z,6.06
2023-02-04T18:25:02.000Z,5.87
2023-02-04T18:30:02.000Z,5.95
2023-02-04T18:35:02.000Z,5.83
2023-02-04T18:40:02.000Z,5.67
2023-02-04T18:45:02.000Z,5.66
2023-02-04T18:50:02.000Z,5.57
2023-02-04T18:55:02.000Z,5.28
2023-02-04T19:00:02.000Z,5.24
2023-02-04T19:05:02.000Z,4.97
2023-02-04T19:10:02.000Z,4.92
2023-02-04T19:15:02.000Z,4.87
2023-02-04T19:20:02.000Z,4.78
2023-02-04T19:25:03.000Z,4.93
2023-02-04T19:30:02.000Z,4.76
2023-02-04T19:35:02.000Z,4.77
2023-02-04T19:40:02.000Z,4.64
2023-02-04T19:45:02.000Z,4.75
2023-02-04T19:50:02.000Z,4.69
2023-02-04T19:55:02.000Z,4.59
2023-02-04T20:00:02.000Z,4.60
2023-02-04T20:05:02.000Z,4.60
2023-02-04T20:10:02.000Z,4.61
2023-02-04T20:15:02.000Z,4.64
2023-02-04T20:20:02.000Z,4.63
2023-02-04T20:25:02.000Z,4.62
2023-02-04T20:30:02.000Z,4.64
2023-02-04T20:35:02.000Z,4.56
2023-02-04T20:40:02.000Z,4.51
2023-02-04T20:45:02.000Z,4.51
2023-02-04T20:50:02.000Z,4.71
2023-02-04T20:55:02.000Z,4.61
2023-02-04T21:00:02.000Z,4.57
2023-02-04T21:05:02.000Z,4.43
2023-02-04T21:10:02.000Z,4.31
2023-02-04T21:15:02.000Z,4.16
2023-02-04T21:20:02.000Z,4.20
2023-02-04T21:25:02.000Z,4.57
2023-02-04T21:30:02.000Z,4.35
2023-02-04T21:35:02.000Z,4.26
2023-02-04T21:40:02.000Z,4.15
2023-02-04T21:45:02.000Z,4.01
2023-02-04T21:50:02.000Z,4.01
2023-02-04T21:55:03.000Z,3.98
2023-02-04T22:00:02.000Z,3.85
2023-02-04T22:05:02.000Z,3.82
2023-02-04T22:10:03.000Z,3.71
2023-02-04T22:15:03.000Z,3.55
2023-02-04T22:20:02.000Z,3.56
2023-02-04T22:25:02.000Z,3.98
2023-02-04T22:30:02.000Z,4.22
2023-02-04T22:35:03.000Z,4.22
2023-02-04T22:40:03.000Z,4.08
2023-02-04T22:45:02.000Z,4.09
2023-02-04T22:50:02.000Z,4.14
2023-02-04T22:55:02.000Z,4.20
2023-02-04T23:00:03.000Z,4.26
2023-02-04T23:05:02.000Z,4.29
2023-02-04T23:10:02.000Z,4.49
2023-02-04T23:15:02.000Z,4.58
2023-02-04T23:20:02.000Z,4.62
2023-02-04T23:25:02.000Z,4.82
2023-02-04T23:30:03.000Z,4.84
2023-02-04T23:35:02.000Z,4.83
2023-02-04T23:40:02.000Z,4.71
2023-02-04T23:45:02.000Z,4.92
2023-02-04T23:50:02.000Z,4.92
2023-02-04T23:55:03.000Z,4.80
